sensor_id;sensor_type;location;lat;lon;timestamp;temperature;humidity
39665;DHT22;26679;50.872;4.332;2022-09-16T00:02:02;16.70;99.90
39665;DHT22;26679;50.872;4.332;2022-09-16T00:04:28;16.70;99.90
39665;DHT22;26679;50.872;4.332;2022-09-16T00:06:54;16.70;99.90
39665;DHT22;26679;50.872;4.332;2022-09-16T00:09:19;16.70;99.90
39665;DHT22;26679;50.872;4.332;2022-09-16T00:11:44;16.70;99.90
39665;DHT22;26679;50.872;4.332;2022-09-16T00:14:10;16.60;99.90
39665;DHT22;26679;50.872;4.332;2022-09-16T00:16:36;16.50;99.90
39665;DHT22;26679;50.872;4.332;2022-09-16T00:19:01;16.50;99.90
39665;DHT22;26679;50.872;4.332;2022-09-16T00:21:27;16.40;99.90
39665;DHT22;26679;50.872;4.332;2022-09-16T00:23:54;16.40;99.90
39665;DHT22;26679;50.872;4.332;2022-09-16T00:26:19;16.20;99.90
39665;DHT22;26679;50.872;4.332;2022-09-16T00:28:48;16.10;99.90
39665;DHT22;26679;50.872;4.332;2022-09-16T00:31:15;16.10;99.90
39665;DHT22;26679;50.872;4.332;2022-09-16T00:33:40;16.00;99.90
39665;DHT22;26679;50.872;4.332;2022-09-16T00:36:10;16.10;99.90
39665;DHT22;26679;50.872;4.332;2022-09-16T00:38:36;16.10;99.90
39665;DHT22;26679;50.872;4.332;2022-09-16T00:41:03;16.20;99.90
39665;DHT22;26679;50.872;4.332;2022-09-16T00:43:44;16.10;99.90
39665;DHT22;26679;50.872;4.332;2022-09-16T00:46:10;16.10;99.90
39665;DHT22;26679;50.872;4.332;2022-09-16T00:48:36;16.10;99.90
39665;DHT22;26679;50.872;4.332;2022-09-16T00:51:02;16.10;99.90
39665;DHT22;26679;50.872;4.332;2022-09-16T00:56:06;16.10;99.90
39665;DHT22;26679;50.872;4.332;2022-09-16T00:58:38;16.10;99.90
39665;DHT22;26679;50.872;4.332;2022-09-16T01:01:05;16.10;99.90
39665;DHT22;26679;50.872;4.332;2022-09-16T01:03:34;16.10;99.90
39665;DHT22;26679;50.872;4.332;2022-09-16T01:06:02;16.10;99.90
39665;DHT22;26679;50.872;4.332;2022-09-16T01:08:27;16.10;99.90
39665;DHT22;26679;50.872;4.332;2022-09-16T01:10:53;16.00;99.90
39665;DHT22;26679;50.872;4.332;2022-09-16T01:13:18;16.00;99.90
39665;DHT22;26679;50.872;4.332;2022-09-16T01:21:01;16.00;99.90
39665;DHT22;26679;50.872;4.332;2022-09-16T01:28:40;15.80;99.90
39665;DHT22;26679;50.872;4.332;2022-09-16T01:31:14;15.80;99.90
39665;DHT22;26679;50.872;4.332;2022-09-16T01:36:30;15.70;99.90
39665;DHT22;26679;50.872;4.332;2022-09-16T01:44:05;15.60;99.90
39665;DHT22;26679;50.872;4.332;2022-09-16T01:46:39;15.70;99.90
39665;DHT22;26679;50.872;4.332;2022-09-16T01:49:16;15.60;99.90
39665;DHT22;26679;50.872;4.332;2022-09-16T01:56:45;15.40;99.90
39665;DHT22;26679;50.872;4.332;2022-09-16T01:59:18;15.40;99.90
39665;DHT22;26679;50.872;4.332;2022-09-16T02:01:50;15.40;99.90
39665;DHT22;26679;50.872;4.332;2022-09-16T02:04:18;15.40;99.90
39665;DHT22;26679;50.872;4.332;2022-09-16T02:06:46;15.40;99.90
39665;DHT22;26679;50.872;4.332;2022-09-16T02:09:14;15.30;99.90
39665;DHT22;26679;50.872;4.332;2022-09-16T02:11:41;15.40;99.90
39665;DHT22;26679;50.872;4.332;2022-09-16T02:16:41;15.70;99.90
39665;DHT22;26679;50.872;4.332;2022-09-16T02:19:09;15.50;99.90
39665;DHT22;26679;50.872;4.332;2022-09-16T02:21:36;15.60;99.90
39665;DHT22;26679;50.872;4.332;2022-09-16T02:24:04;15.60;99.90
39665;DHT22;26679;50.872;4.332;2022-09-16T02:26:35;15.60;99.90
39665;DHT22;26679;50.872;4.332;2022-09-16T02:29:01;15.60;99.90
39665;DHT22;26679;50.872;4.332;2022-09-16T02:31:30;15.60;99.90
39665;DHT22;26679;50.872;4.332;2022-09-16T02:34:00;15.60;99.90
39665;DHT22;26679;50.872;4.332;2022-09-16T02:36:27;15.60;99.90
39665;DHT22;26679;50.872;4.332;2022-09-16T02:38:55;15.60;99.90
39665;DHT22;26679;50.872;4.332;2022-09-16T02:41:22;15.50;99.90
39665;DHT22;26679;50.872;4.332;2022-09-16T02:43:47;15.60;99.90
39665;DHT22;26679;50.872;4.332;2022-09-16T02:49:36;15.50;99.90
39665;DHT22;26679;50.872;4.332;2022-09-16T02:51:48;15.50;99.90
39665;DHT22;26679;50.872;4.332;2022-09-16T02:54:24;15.60;99.90
39665;DHT22;26679;50.872;4.332;2022-09-16T02:56:53;15.60;99.90
39665;DHT22;26679;50.872;4.332;2022-09-16T02:59:19;15.60;99.90
39665;DHT22;26679;50.872;4.332;2022-09-16T03:01:45;15.60;99.90
39665;DHT22;26679;50.872;4.332;2022-09-16T03:04:12;15.60;99.90
39665;DHT22;26679;50.872;4.332;2022-09-16T03:06:38;15.70;99.90
39665;DHT22;26679;50.872;4.332;2022-09-16T03:09:06;15.70;99.90
39665;DHT22;26679;50.872;4.332;2022-09-16T03:21:54;15.60;99.90
39665;DHT22;26679;50.872;4.332;2022-09-16T03:26:57;15.50;99.90
39665;DHT22;26679;50.872;4.332;2022-09-16T03:29:32;15.60;99.90
39665;DHT22;26679;50.872;4.332;2022-09-16T03:32:05;15.60;99.90
39665;DHT22;26679;50.872;4.332;2022-09-16T03:34:33;15.50;99.90
39665;DHT22;26679;50.872;4.332;2022-09-16T03:37:04;15.50;99.90
39665;DHT22;26679;50.872;4.332;2022-09-16T03:39:30;15.40;99.90
39665;DHT22;26679;50.872;4.332;2022-09-16T03:42:02;15.40;99.90
39665;DHT22;26679;50.872;4.332;2022-09-16T03:44:38;15.30;99.90
39665;DHT22;26679;50.872;4.332;2022-09-16T03:47:05;15.30;99.90
39665;DHT22;26679;50.872;4.332;2022-09-16T03:49:30;15.30;99.90
39665;DHT22;26679;50.872;4.332;2022-09-16T03:51:56;15.30;99.90
39665;DHT22;26679;50.872;4.332;2022-09-16T03:54:22;15.40;99.90
39665;DHT22;26679;50.872;4.332;2022-09-16T03:56:47;15.50;99.90
39665;DHT22;26679;50.872;4.332;2022-09-16T03:59:13;15.50;99.90
39665;DHT22;26679;50.872;4.332;2022-09-16T04:01:38;15.50;99.90
39665;DHT22;26679;50.872;4.332;2022-09-16T04:04:04;15.50;99.90
39665;DHT22;26679;50.872;4.332;2022-09-16T04:06:29;15.50;99.90
39665;DHT22;26679;50.872;4.332;2022-09-16T04:08:55;15.40;99.90
39665;DHT22;26679;50.872;4.332;2022-09-16T04:11:25;15.40;99.90
39665;DHT22;26679;50.872;4.332;2022-09-16T04:13:54;15.40;99.90
39665;DHT22;26679;50.872;4.332;2022-09-16T04:16:19;15.40;99.90
39665;DHT22;26679;50.872;4.332;2022-09-16T04:18:45;15.40;99.90
39665;DHT22;26679;50.872;4.332;2022-09-16T04:21:11;15.40;99.90
39665;DHT22;26679;50.872;4.332;2022-09-16T04:23:36;15.40;99.90
39665;DHT22;26679;50.872;4.332;2022-09-16T04:26:02;15.50;99.90
39665;DHT22;26679;50.872;4.332;2022-09-16T04:28:28;15.40;99.90
39665;DHT22;26679;50.872;4.332;2022-09-16T04:30:58;15.40;99.90
39665;DHT22;26679;50.872;4.332;2022-09-16T04:33:26;15.40;99.90
39665;DHT22;26679;50.872;4.332;2022-09-16T04:35:51;15.30;99.90
39665;DHT22;26679;50.872;4.332;2022-09-16T04:38:17;15.30;99.90
39665;DHT22;26679;50.872;4.332;2022-09-16T04:40:42;15.20;99.90
39665;DHT22;26679;50.872;4.332;2022-09-16T04:43:08;15.10;99.90
39665;DHT22;26679;50.872;4.332;2022-09-16T04:45:33;15.00;99.90
39665;DHT22;26679;50.872;4.332;2022-09-16T04:47:59;15.10;99.90
39665;DHT22;26679;50.872;4.332;2022-09-16T04:50:24;15.10;99.90
39665;DHT22;26679;50.872;4.332;2022-09-16T04:52:50;15.10;99.90
39665;DHT22;26679;50.872;4.332;2022-09-16T04:55:18;15.10;99.90
39665;DHT22;26679;50.872;4.332;2022-09-16T04:57:47;15.10;99.90
39665;DHT22;26679;50.872;4.332;2022-09-16T05:00:13;15.00;99.90
39665;DHT22;26679;50.872;4.332;2022-09-16T05:02:38;15.10;99.90
39665;DHT22;26679;50.872;4.332;2022-09-16T05:05:04;15.10;99.90
39665;DHT22;26679;50.872;4.332;2022-09-16T05:07:30;15.00;99.90
39665;DHT22;26679;50.872;4.332;2022-09-16T05:09:55;15.10;99.90
39665;DHT22;26679;50.872;4.332;2022-09-16T05:12:21;15.10;99.90
39665;DHT22;26679;50.872;4.332;2022-09-16T05:14:46;15.10;99.90
39665;DHT22;26679;50.872;4.332;2022-09-16T05:17:13;15.10;99.90
39665;DHT22;26679;50.872;4.332;2022-09-16T05:19:39;15.10;99.90
39665;DHT22;26679;50.872;4.332;2022-09-16T05:22:04;15.20;99.90
39665;DHT22;26679;50.872;4.332;2022-09-16T05:24:34;15.20;99.90
39665;DHT22;26679;50.872;4.332;2022-09-16T05:27:03;15.30;99.90
39665;DHT22;26679;50.872;4.332;2022-09-16T05:29:28;15.30;99.90
39665;DHT22;26679;50.872;4.332;2022-09-16T05:31:54;15.30;99.90
39665;DHT22;26679;50.872;4.332;2022-09-16T05:34:20;15.20;99.90
39665;DHT22;26679;50.872;4.332;2022-09-16T05:36:47;15.30;99.90
39665;DHT22;26679;50.872;4.332;2022-09-16T05:39:14;15.30;99.90
39665;DHT22;26679;50.872;4.332;2022-09-16T05:41:42;15.30;99.90
39665;DHT22;26679;50.872;4.332;2022-09-16T05:44:07;15.30;99.90
39665;DHT22;26679;50.872;4.332;2022-09-16T05:46:33;15.30;99.90
39665;DHT22;26679;50.872;4.332;2022-09-16T05:48:59;15.30;99.90
39665;DHT22;26679;50.872;4.332;2022-09-16T05:51:25;15.30;99.90
39665;DHT22;26679;50.872;4.332;2022-09-16T05:53:51;15.40;99.90
39665;DHT22;26679;50.872;4.332;2022-09-16T05:56:34;15.40;99.90
39665;DHT22;26679;50.872;4.332;2022-09-16T05:59:00;15.40;99.90
39665;DHT22;26679;50.872;4.332;2022-09-16T06:01:27;15.30;99.90
39665;DHT22;26679;50.872;4.332;2022-09-16T06:03:53;15.30;99.90
39665;DHT22;26679;50.872;4.332;2022-09-16T06:06:23;15.40;99.90
39665;DHT22;26679;50.872;4.332;2022-09-16T06:08:50;15.30;99.90
39665;DHT22;26679;50.872;4.332;2022-09-16T06:11:16;15.20;99.90
39665;DHT22;26679;50.872;4.332;2022-09-16T06:13:41;15.10;99.90
39665;DHT22;26679;50.872;4.332;2022-09-16T06:16:07;15.00;99.90
39665;DHT22;26679;50.872;4.332;2022-09-16T06:18:33;15.00;99.90
39665;DHT22;26679;50.872;4.332;2022-09-16T06:21:02;14.90;99.90
39665;DHT22;26679;50.872;4.332;2022-09-16T06:23:27;14.70;99.90
39665;DHT22;26679;50.872;4.332;2022-09-16T06:26:26;14.80;99.90
39665;DHT22;26679;50.872;4.332;2022-09-16T06:28:45;14.70;99.90
39665;DHT22;26679;50.872;4.332;2022-09-16T06:31:12;14.60;99.90
39665;DHT22;26679;50.872;4.332;2022-09-16T06:33:39;14.70;99.90
39665;DHT22;26679;50.872;4.332;2022-09-16T06:36:06;14.80;99.90
39665;DHT22;26679;50.872;4.332;2022-09-16T06:38:33;14.90;99.90
39665;DHT22;26679;50.872;4.332;2022-09-16T06:40:59;15.00;99.90
39665;DHT22;26679;50.872;4.332;2022-09-16T06:43:25;15.20;99.90
39665;DHT22;26679;50.872;4.332;2022-09-16T06:45:54;15.30;99.90
39665;DHT22;26679;50.872;4.332;2022-09-16T06:48:20;15.30;99.90
39665;DHT22;26679;50.872;4.332;2022-09-16T06:50:45;15.20;99.90
39665;DHT22;26679;50.872;4.332;2022-09-16T06:53:11;15.20;99.90
39665;DHT22;26679;50.872;4.332;2022-09-16T06:55:37;15.10;99.90
39665;DHT22;26679;50.872;4.332;2022-09-16T06:58:02;14.80;99.90
39665;DHT22;26679;50.872;4.332;2022-09-16T07:00:28;14.40;99.90
39665;DHT22;26679;50.872;4.332;2022-09-16T07:02:53;14.30;99.90
39665;DHT22;26679;50.872;4.332;2022-09-16T07:05:19;14.20;99.90
39665;DHT22;26679;50.872;4.332;2022-09-16T07:07:44;14.20;99.90
39665;DHT22;26679;50.872;4.332;2022-09-16T07:10:10;14.20;99.90
39665;DHT22;26679;50.872;4.332;2022-09-16T07:12:35;14.10;99.90
39665;DHT22;26679;50.872;4.332;2022-09-16T07:15:00;14.20;99.90
39665;DHT22;26679;50.872;4.332;2022-09-16T07:17:26;14.10;99.90
39665;DHT22;26679;50.872;4.332;2022-09-16T07:19:52;14.00;99.90
39665;DHT22;26679;50.872;4.332;2022-09-16T07:22:19;13.90;99.90
39665;DHT22;26679;50.872;4.332;2022-09-16T07:24:45;13.90;99.90
39665;DHT22;26679;50.872;4.332;2022-09-16T07:27:10;13.80;99.90
39665;DHT22;26679;50.872;4.332;2022-09-16T07:29:36;13.90;99.90
39665;DHT22;26679;50.872;4.332;2022-09-16T07:32:02;13.80;99.90
39665;DHT22;26679;50.872;4.332;2022-09-16T07:34:27;13.80;99.90
39665;DHT22;26679;50.872;4.332;2022-09-16T07:36:53;13.80;99.90
39665;DHT22;26679;50.872;4.332;2022-09-16T07:39:18;13.90;99.90
39665;DHT22;26679;50.872;4.332;2022-09-16T07:41:45;13.90;99.90
39665;DHT22;26679;50.872;4.332;2022-09-16T07:44:13;14.00;99.90
39665;DHT22;26679;50.872;4.332;2022-09-16T07:46:39;14.20;99.90
39665;DHT22;26679;50.872;4.332;2022-09-16T07:49:05;14.20;99.90
39665;DHT22;26679;50.872;4.332;2022-09-16T07:51:31;14.30;99.90
39665;DHT22;26679;50.872;4.332;2022-09-16T07:54:01;14.30;99.90
39665;DHT22;26679;50.872;4.332;2022-09-16T07:56:32;14.40;99.90
39665;DHT22;26679;50.872;4.332;2022-09-16T07:58:58;14.40;99.90
39665;DHT22;26679;50.872;4.332;2022-09-16T08:01:24;14.50;99.90
39665;DHT22;26679;50.872;4.332;2022-09-16T08:03:50;14.70;99.90
39665;DHT22;26679;50.872;4.332;2022-09-16T08:06:19;14.80;99.90
39665;DHT22;26679;50.872;4.332;2022-09-16T08:08:46;15.20;99.90
39665;DHT22;26679;50.872;4.332;2022-09-16T08:11:12;15.20;99.90
39665;DHT22;26679;50.872;4.332;2022-09-16T08:13:38;15.40;99.90
39665;DHT22;26679;50.872;4.332;2022-09-16T08:16:05;15.40;99.90
39665;DHT22;26679;50.872;4.332;2022-09-16T08:18:31;15.50;99.90
39665;DHT22;26679;50.872;4.332;2022-09-16T08:20:57;15.50;99.90
39665;DHT22;26679;50.872;4.332;2022-09-16T08:23:25;15.70;99.90
39665;DHT22;26679;50.872;4.332;2022-09-16T08:25:57;15.90;99.90
39665;DHT22;26679;50.872;4.332;2022-09-16T08:28:23;15.90;99.90
39665;DHT22;26679;50.872;4.332;2022-09-16T08:30:48;15.90;99.90
39665;DHT22;26679;50.872;4.332;2022-09-16T08:33:16;16.00;99.90
39665;DHT22;26679;50.872;4.332;2022-09-16T08:35:45;15.90;99.90
39665;DHT22;26679;50.872;4.332;2022-09-16T08:38:11;15.90;99.90
39665;DHT22;26679;50.872;4.332;2022-09-16T08:40:37;15.90;99.90
39665;DHT22;26679;50.872;4.332;2022-09-16T08:43:09;15.60;99.90
39665;DHT22;26679;50.872;4.332;2022-09-16T08:48:06;14.90;99.90
39665;DHT22;26679;50.872;4.332;2022-09-16T08:50:37;14.60;99.90
39665;DHT22;26679;50.872;4.332;2022-09-16T08:53:05;14.40;99.90
39665;DHT22;26679;50.872;4.332;2022-09-16T08:55:33;14.30;99.90
39665;DHT22;26679;50.872;4.332;2022-09-16T08:58:12;14.20;99.90
39665;DHT22;26679;50.872;4.332;2022-09-16T09:00:39;14.10;99.90
39665;DHT22;26679;50.872;4.332;2022-09-16T09:10:51;14.20;99.90
39665;DHT22;26679;50.872;4.332;2022-09-16T09:13:23;14.30;99.90
39665;DHT22;26679;50.872;4.332;2022-09-16T09:15:55;14.30;99.90
39665;DHT22;26679;50.872;4.332;2022-09-16T09:33:45;14.60;99.90
39665;DHT22;26679;50.872;4.332;2022-09-16T09:41:33;15.50;99.90
39665;DHT22;26679;50.872;4.332;2022-09-16T09:46:40;16.50;99.90
39665;DHT22;26679;50.872;4.332;2022-09-16T09:49:10;17.70;99.90
39665;DHT22;26679;50.872;4.332;2022-09-16T09:56:52;20.30;99.90
39665;DHT22;26679;50.872;4.332;2022-09-16T10:01:51;22.20;99.90
39665;DHT22;26679;50.872;4.332;2022-09-16T10:04:17;22.60;99.50
39665;DHT22;26679;50.872;4.332;2022-09-16T10:06:42;22.10;98.80
39665;DHT22;26679;50.872;4.332;2022-09-16T10:09:13;22.00;98.80
39665;DHT22;26679;50.872;4.332;2022-09-16T10:11:49;21.70;98.10
39665;DHT22;26679;50.872;4.332;2022-09-16T10:16:52;21.10;99.00
39665;DHT22;26679;50.872;4.332;2022-09-16T10:21:47;22.30;96.90
39665;DHT22;26679;50.872;4.332;2022-09-16T10:26:50;23.40;94.10
39665;DHT22;26679;50.872;4.332;2022-09-16T10:29:16;22.90;93.60
39665;DHT22;26679;50.872;4.332;2022-09-16T10:31:43;21.90;94.90
39665;DHT22;26679;50.872;4.332;2022-09-16T10:36:45;19.50;97.30
39665;DHT22;26679;50.872;4.332;2022-09-16T10:41:47;16.50;99.90
39665;DHT22;26679;50.872;4.332;2022-09-16T10:54:35;15.60;99.90
39665;DHT22;26679;50.872;4.332;2022-09-16T10:57:00;15.80;99.90
39665;DHT22;26679;50.872;4.332;2022-09-16T10:59:26;15.90;99.90
39665;DHT22;26679;50.872;4.332;2022-09-16T11:02:01;16.20;99.90
39665;DHT22;26679;50.872;4.332;2022-09-16T11:14:47;18.70;99.90
39665;DHT22;26679;50.872;4.332;2022-09-16T11:22:39;19.60;99.90
39665;DHT22;26679;50.872;4.332;2022-09-16T11:30:19;18.20;99.90
39665;DHT22;26679;50.872;4.332;2022-09-16T11:51:05;16.00;99.90
39665;DHT22;26679;50.872;4.332;2022-09-16T11:55:56;15.90;99.90
39665;DHT22;26679;50.872;4.332;2022-09-16T12:01:00;15.20;99.90
39665;DHT22;26679;50.872;4.332;2022-09-16T12:03:29;14.90;99.90
39665;DHT22;26679;50.872;4.332;2022-09-16T12:05:58;14.80;99.90
39665;DHT22;26679;50.872;4.332;2022-09-16T12:08:36;14.90;99.90
39665;DHT22;26679;50.872;4.332;2022-09-16T12:11:25;14.70;99.90
39665;DHT22;26679;50.872;4.332;2022-09-16T12:16:30;14.70;99.90
39665;DHT22;26679;50.872;4.332;2022-09-16T12:18:59;14.70;99.90
39665;DHT22;26679;50.872;4.332;2022-09-16T12:29:18;14.60;99.90
39665;DHT22;26679;50.872;4.332;2022-09-16T12:31:46;14.80;99.90
39665;DHT22;26679;50.872;4.332;2022-09-16T12:34:15;15.10;99.90
39665;DHT22;26679;50.872;4.332;2022-09-16T12:36:45;15.30;99.90
39665;DHT22;26679;50.872;4.332;2022-09-16T12:39:12;15.60;99.90
39665;DHT22;26679;50.872;4.332;2022-09-16T13:02:17;18.30;99.90
39665;DHT22;26679;50.872;4.332;2022-09-16T13:04:44;18.30;99.90
39665;DHT22;26679;50.872;4.332;2022-09-16T13:07:16;18.20;99.90
39665;DHT22;26679;50.872;4.332;2022-09-16T13:09:44;18.00;99.90
39665;DHT22;26679;50.872;4.332;2022-09-16T13:14:49;17.40;99.90
39665;DHT22;26679;50.872;4.332;2022-09-16T13:17:25;17.30;99.90
39665;DHT22;26679;50.872;4.332;2022-09-16T13:19:51;17.20;99.90
39665;DHT22;26679;50.872;4.332;2022-09-16T13:25:05;17.30;99.90
39665;DHT22;26679;50.872;4.332;2022-09-16T13:27:33;17.60;99.90
39665;DHT22;26679;50.872;4.332;2022-09-16T13:35:18;21.80;99.90
39665;DHT22;26679;50.872;4.332;2022-09-16T13:37:49;21.80;99.90
39665;DHT22;26679;50.872;4.332;2022-09-16T13:40:25;21.10;99.90
39665;DHT22;26679;50.872;4.332;2022-09-16T13:43:01;18.80;99.90
39665;DHT22;26679;50.872;4.332;2022-09-16T13:45:37;17.20;99.90
39665;DHT22;26679;50.872;4.332;2022-09-16T13:50:42;17.00;99.90
39665;DHT22;26679;50.872;4.332;2022-09-16T13:53:09;16.70;99.90
39665;DHT22;26679;50.872;4.332;2022-09-16T13:55:40;16.40;99.90
39665;DHT22;26679;50.872;4.332;2022-09-16T14:08:26;17.80;99.90
39665;DHT22;26679;50.872;4.332;2022-09-16T14:13:35;19.40;99.90
39665;DHT22;26679;50.872;4.332;2022-09-16T14:16:01;21.20;99.90
39665;DHT22;26679;50.872;4.332;2022-09-16T14:18:28;22.70;98.50
39665;DHT22;26679;50.872;4.332;2022-09-16T14:21:02;23.40;95.60
39665;DHT22;26679;50.872;4.332;2022-09-16T14:23:29;23.80;94.40
39665;DHT22;26679;50.872;4.332;2022-09-16T14:25:55;24.20;93.90
39665;DHT22;26679;50.872;4.332;2022-09-16T14:28:24;24.40;92.80
39665;DHT22;26679;50.872;4.332;2022-09-16T14:30:57;24.00;92.50
39665;DHT22;26679;50.872;4.332;2022-09-16T14:33:24;23.10;93.70
39665;DHT22;26679;50.872;4.332;2022-09-16T14:35:51;21.60;94.60
39665;DHT22;26679;50.872;4.332;2022-09-16T14:38:18;20.90;95.60
39665;DHT22;26679;50.872;4.332;2022-09-16T14:40:44;20.20;96.60
39665;DHT22;26679;50.872;4.332;2022-09-16T14:43:13;19.90;97.10
39665;DHT22;26679;50.872;4.332;2022-09-16T14:45:42;19.30;97.10
39665;DHT22;26679;50.872;4.332;2022-09-16T14:48:08;19.00;97.50
39665;DHT22;26679;50.872;4.332;2022-09-16T14:50:39;18.70;96.80
39665;DHT22;26679;50.872;4.332;2022-09-16T14:53:05;18.40;97.40
39665;DHT22;26679;50.872;4.332;2022-09-16T14:55:33;18.00;98.10
39665;DHT22;26679;50.872;4.332;2022-09-16T14:58:02;18.20;98.00
39665;DHT22;26679;50.872;4.332;2022-09-16T15:00:32;19.10;96.90
39665;DHT22;26679;50.872;4.332;2022-09-16T15:03:04;20.10;96.40
39665;DHT22;26679;50.872;4.332;2022-09-16T15:05:32;20.30;95.70
39665;DHT22;26679;50.872;4.332;2022-09-16T15:10:35;21.00;94.20
39665;DHT22;26679;50.872;4.332;2022-09-16T15:13:07;22.00;93.80
39665;DHT22;26679;50.872;4.332;2022-09-16T15:15:34;21.70;92.80
39665;DHT22;26679;50.872;4.332;2022-09-16T15:18:05;20.70;93.00
39665;DHT22;26679;50.872;4.332;2022-09-16T15:20:34;20.20;93.60
39665;DHT22;26679;50.872;4.332;2022-09-16T15:23:02;19.60;93.90
39665;DHT22;26679;50.872;4.332;2022-09-16T15:25:30;18.90;94.60
39665;DHT22;26679;50.872;4.332;2022-09-16T15:28:03;19.00;95.20
39665;DHT22;26679;50.872;4.332;2022-09-16T15:30:28;18.90;94.80
39665;DHT22;26679;50.872;4.332;2022-09-16T15:32:54;18.70;95.50
39665;DHT22;26679;50.872;4.332;2022-09-16T15:35:21;18.60;95.40
39665;DHT22;26679;50.872;4.332;2022-09-16T15:37:47;18.60;95.70
39665;DHT22;26679;50.872;4.332;2022-09-16T15:45:25;18.30;96.40
39665;DHT22;26679;50.872;4.332;2022-09-16T15:50:29;17.90;97.00
39665;DHT22;26679;50.872;4.332;2022-09-16T15:53:03;17.60;97.60
39665;DHT22;26679;50.872;4.332;2022-09-16T16:00:55;18.00;97.60
39665;DHT22;26679;50.872;4.332;2022-09-16T16:03:19;18.20;97.30
39665;DHT22;26679;50.872;4.332;2022-09-16T16:05:51;18.60;97.40
39665;DHT22;26679;50.872;4.332;2022-09-16T16:11:14;18.20;97.60
39665;DHT22;26679;50.872;4.332;2022-09-16T16:13:39;17.90;97.90
39665;DHT22;26679;50.872;4.332;2022-09-16T16:16:05;17.60;98.30
39665;DHT22;26679;50.872;4.332;2022-09-16T16:18:32;17.40;98.80
39665;DHT22;26679;50.872;4.332;2022-09-16T16:20:59;17.30;98.80
39665;DHT22;26679;50.872;4.332;2022-09-16T16:23:26;17.20;98.90
39665;DHT22;26679;50.872;4.332;2022-09-16T16:25:51;17.10;99.40
39665;DHT22;26679;50.872;4.332;2022-09-16T16:28:17;17.00;99.90
39665;DHT22;26679;50.872;4.332;2022-09-16T16:30:42;16.70;99.90
39665;DHT22;26679;50.872;4.332;2022-09-16T16:33:08;16.60;99.90
39665;DHT22;26679;50.872;4.332;2022-09-16T16:35:33;16.50;99.90
39665;DHT22;26679;50.872;4.332;2022-09-16T16:37:59;16.20;99.90
39665;DHT22;26679;50.872;4.332;2022-09-16T16:40:24;16.10;99.90
39665;DHT22;26679;50.872;4.332;2022-09-16T16:42:50;16.10;99.90
39665;DHT22;26679;50.872;4.332;2022-09-16T16:45:15;16.00;99.90
39665;DHT22;26679;50.872;4.332;2022-09-16T16:47:41;15.90;99.90
39665;DHT22;26679;50.872;4.332;2022-09-16T16:50:07;15.70;99.90
39665;DHT22;26679;50.872;4.332;2022-09-16T16:52:32;15.40;99.90
39665;DHT22;26679;50.872;4.332;2022-09-16T16:54:58;15.20;99.90
39665;DHT22;26679;50.872;4.332;2022-09-16T16:57:24;15.00;99.90
39665;DHT22;26679;50.872;4.332;2022-09-16T16:59:49;14.80;99.90
39665;DHT22;26679;50.872;4.332;2022-09-16T17:02:16;14.60;99.90
39665;DHT22;26679;50.872;4.332;2022-09-16T17:04:41;14.60;99.90
39665;DHT22;26679;50.872;4.332;2022-09-16T17:07:07;14.60;99.90
39665;DHT22;26679;50.872;4.332;2022-09-16T17:09:32;14.60;99.90
39665;DHT22;26679;50.872;4.332;2022-09-16T17:11:59;14.60;99.90
39665;DHT22;26679;50.872;4.332;2022-09-16T17:14:25;14.60;99.90
39665;DHT22;26679;50.872;4.332;2022-09-16T17:16:51;14.40;99.90
39665;DHT22;26679;50.872;4.332;2022-09-16T17:19:19;14.40;99.90
39665;DHT22;26679;50.872;4.332;2022-09-16T17:21:45;14.30;99.90
39665;DHT22;26679;50.872;4.332;2022-09-16T17:24:11;14.40;99.90
39665;DHT22;26679;50.872;4.332;2022-09-16T17:26:36;14.20;99.90
39665;DHT22;26679;50.872;4.332;2022-09-16T17:29:02;14.30;99.90
39665;DHT22;26679;50.872;4.332;2022-09-16T17:31:29;14.50;99.90
39665;DHT22;26679;50.872;4.332;2022-09-16T17:33:56;14.50;99.90
39665;DHT22;26679;50.872;4.332;2022-09-16T17:36:22;14.60;99.90
39665;DHT22;26679;50.872;4.332;2022-09-16T17:41:21;14.70;99.90
39665;DHT22;26679;50.872;4.332;2022-09-16T17:43:46;14.80;99.90
39665;DHT22;26679;50.872;4.332;2022-09-16T17:46:14;14.90;99.90
39665;DHT22;26679;50.872;4.332;2022-09-16T17:48:41;14.90;99.90
39665;DHT22;26679;50.872;4.332;2022-09-16T17:51:07;14.90;99.90
39665;DHT22;26679;50.872;4.332;2022-09-16T17:53:33;15.00;99.90
39665;DHT22;26679;50.872;4.332;2022-09-16T17:56:03;14.90;99.90
39665;DHT22;26679;50.872;4.332;2022-09-16T17:58:29;14.90;99.90
39665;DHT22;26679;50.872;4.332;2022-09-16T18:00:55;14.90;99.90
39665;DHT22;26679;50.872;4.332;2022-09-16T18:03:27;14.80;99.90
39665;DHT22;26679;50.872;4.332;2022-09-16T18:05:52;14.70;99.90
39665;DHT22;26679;50.872;4.332;2022-09-16T18:08:18;14.60;99.90
39665;DHT22;26679;50.872;4.332;2022-09-16T18:10:50;14.60;99.90
39665;DHT22;26679;50.872;4.332;2022-09-16T18:13:16;14.70;99.90
39665;DHT22;26679;50.872;4.332;2022-09-16T18:15:41;14.60;99.90
39665;DHT22;26679;50.872;4.332;2022-09-16T18:18:07;14.50;99.90
39665;DHT22;26679;50.872;4.332;2022-09-16T18:20:32;14.40;99.90
39665;DHT22;26679;50.872;4.332;2022-09-16T18:22:58;14.30;99.90
39665;DHT22;26679;50.872;4.332;2022-09-16T18:25:23;14.30;99.90
39665;DHT22;26679;50.872;4.332;2022-09-16T18:27:50;14.40;99.90
39665;DHT22;26679;50.872;4.332;2022-09-16T18:30:15;14.50;99.90
39665;DHT22;26679;50.872;4.332;2022-09-16T18:32:41;14.50;99.90
39665;DHT22;26679;50.872;4.332;2022-09-16T18:35:07;14.50;99.90
39665;DHT22;26679;50.872;4.332;2022-09-16T18:37:32;14.40;99.90
39665;DHT22;26679;50.872;4.332;2022-09-16T18:39:58;14.40;99.90
39665;DHT22;26679;50.872;4.332;2022-09-16T18:42:24;14.30;99.90
39665;DHT22;26679;50.872;4.332;2022-09-16T18:44:49;14.20;99.90
39665;DHT22;26679;50.872;4.332;2022-09-16T18:47:15;14.10;99.90
39665;DHT22;26679;50.872;4.332;2022-09-16T18:49:40;14.10;99.90
39665;DHT22;26679;50.872;4.332;2022-09-16T18:52:06;14.10;99.90
39665;DHT22;26679;50.872;4.332;2022-09-16T18:54:32;14.10;99.90
39665;DHT22;26679;50.872;4.332;2022-09-16T18:56:58;14.10;99.90
39665;DHT22;26679;50.872;4.332;2022-09-16T18:59:25;14.10;99.90
39665;DHT22;26679;50.872;4.332;2022-09-16T19:01:53;14.20;99.90
39665;DHT22;26679;50.872;4.332;2022-09-16T19:04:20;14.20;99.90
39665;DHT22;26679;50.872;4.332;2022-09-16T19:06:46;14.10;99.90
39665;DHT22;26679;50.872;4.332;2022-09-16T19:09:14;13.90;99.90
39665;DHT22;26679;50.872;4.332;2022-09-16T19:11:40;13.90;99.90
39665;DHT22;26679;50.872;4.332;2022-09-16T19:14:06;13.80;99.90
39665;DHT22;26679;50.872;4.332;2022-09-16T19:16:37;13.80;99.90
39665;DHT22;26679;50.872;4.332;2022-09-16T19:19:05;13.70;99.90
39665;DHT22;26679;50.872;4.332;2022-09-16T19:21:30;13.60;99.90
39665;DHT22;26679;50.872;4.332;2022-09-16T19:23:56;13.50;99.90